createdAt,value
2023-03-22T00:01:22.358Z,56.80
2023-03-22T00:03:50.674Z,54.30
2023-03-22T00:06:18.265Z,56.05
2023-03-22T00:09:05.066Z,53.05
2023-03-22T00:11:32.277Z,48.03
2023-03-22T00:14:02.136Z,57.95
2023-03-22T00:16:29.342Z,50.60
2023-03-22T00:18:56.559Z,54.03
2023-03-22T00:21:23.891Z,49.55
2023-03-22T00:23:51.246Z,49.72
2023-03-22T00:26:18.413Z,46.67
2023-03-22T00:28:46.010Z,44.10
2023-03-22T00:31:14.988Z,40.42
2023-03-22T00:33:49.466Z,40.65
2023-03-22T00:36:16.769Z,36.43
2023-03-22T00:38:45.089Z,36.15
2023-03-22T00:41:17.237Z,36.40
2023-03-22T00:43:46.157Z,35.38
2023-03-22T00:46:14.168Z,33.38
2023-03-22T00:48:42.972Z,37.35
2023-03-22T00:51:10.518Z,35.80
2023-03-22T00:53:42.394Z,38.55
2023-03-22T00:56:14.067Z,36.17
2023-03-22T00:58:46.139Z,37.50
2023-03-22T01:01:14.187Z,34.13
2023-03-22T01:03:42.604Z,35.58
2023-03-22T01:06:11.086Z,34.42
2023-03-22T01:08:39.428Z,34.90
2023-03-22T01:11:07.408Z,35.00
2023-03-22T01:13:37.472Z,34.25
2023-03-22T01:16:06.390Z,36.88
2023-03-22T01:18:34.783Z,37.28
2023-03-22T01:21:02.295Z,37.83
2023-03-22T01:23:29.924Z,38.00
2023-03-22T01:25:59.579Z,36.33
2023-03-22T01:28:27.513Z,37.63
2023-03-22T01:30:55.828Z,37.03
2023-03-22T01:33:23.165Z,38.15
2023-03-22T01:35:54.167Z,39.35
2023-03-22T01:38:21.678Z,37.55
2023-03-22T01:40:57.474Z,38.25
2023-03-22T01:43:25.361Z,37.60
2023-03-22T01:45:53.550Z,35.78
2023-03-22T01:48:42.026Z,38.25
2023-03-22T01:51:21.306Z,35.80
2023-03-22T01:54:36.591Z,35.28
2023-03-22T01:57:18.466Z,34.70
2023-03-22T01:59:46.054Z,34.70
2023-03-22T02:02:32.792Z,33.40
2023-03-22T02:05:12.372Z,32.38
2023-03-22T02:07:42.170Z,33.63
2023-03-22T02:10:14.460Z,32.88
2023-03-22T02:13:26.097Z,32.58
2023-03-22T02:16:25.278Z,31.15
2023-03-22T02:19:04.575Z,30.27
2023-03-22T02:22:02.092Z,30.02
2023-03-22T02:24:55.573Z,28.95
2023-03-22T02:28:12.115Z,28.92
2023-03-22T02:31:43.371Z,28.52
2023-03-22T02:34:36.359Z,29.35
2023-03-22T02:37:37.198Z,28.63
2023-03-22T02:40:10.669Z,30.05
2023-03-22T02:42:56.337Z,30.60
2023-03-22T02:45:53.585Z,30.42
2023-03-22T02:49:04.542Z,30.35
2023-03-22T02:51:47.299Z,31.02
2023-03-22T02:54:57.075Z,31.15
2023-03-22T02:57:49.325Z,31.85
2023-03-22T03:00:18.725Z,33.00
2023-03-22T03:02:53.752Z,32.22
2023-03-22T03:05:21.012Z,32.22
2023-03-22T03:07:55.908Z,32.13
2023-03-22T03:10:25.280Z,32.45
2023-03-22T03:12:52.621Z,32.72
2023-03-22T03:15:21.909Z,30.50
2023-03-22T03:18:17.305Z,31.83
2023-03-22T03:21:02.496Z,31.02
2023-03-22T03:23:50.312Z,29.52
2023-03-22T03:26:41.124Z,31.23
2023-03-22T03:29:35.284Z,31.77
2023-03-22T03:32:08.525Z,29.93
2023-03-22T03:35:06.132Z,29.85
2023-03-22T03:37:39.369Z,28.25
2023-03-22T03:40:24.950Z,28.67
2023-03-22T03:42:55.962Z,28.60
2023-03-22T03:45:24.522Z,28.60
2023-03-22T03:47:57.093Z,28.15
2023-03-22T03:50:25.559Z,29.05
2023-03-22T03:52:53.736Z,29.95
2023-03-22T03:55:21.952Z,28.73
2023-03-22T03:57:52.430Z,27.98
2023-03-22T04:00:20.016Z,30.02
2023-03-22T04:03:07.226Z,29.92
2023-03-22T04:05:46.991Z,30.70
2023-03-22T04:08:14.440Z,30.77
2023-03-22T04:10:42.199Z,28.83
2023-03-22T04:13:09.561Z,31.02
2023-03-22T04:15:41.813Z,30.67
2023-03-22T04:18:13.652Z,32.97
2023-03-22T04:20:41.879Z,31.42
2023-03-22T04:23:13.140Z,32.47
2023-03-22T04:25:41.841Z,32.47
2023-03-22T04:28:13.674Z,31.95
2023-03-22T04:30:45.817Z,32.50
2023-03-22T04:33:23.054Z,32.30
2023-03-22T04:36:10.386Z,32.47
2023-03-22T04:38:53.347Z,31.52
2023-03-22T04:41:23.939Z,29.98
2023-03-22T04:43:56.869Z,30.17
2023-03-22T04:46:24.822Z,29.77
2023-03-22T04:49:03.512Z,31.40
2023-03-22T04:51:34.384Z,32.72
2023-03-22T04:54:18.113Z,31.17
2023-03-22T04:56:46.333Z,30.10
2023-03-22T04:59:18.263Z,29.88
2023-03-22T05:01:48.101Z,30.67
2023-03-22T05:04:19.736Z,29.88
2023-03-22T05:06:49.040Z,30.65
2023-03-22T05:09:28.305Z,32.88
2023-03-22T05:11:56.546Z,29.40
2023-03-22T05:14:47.793Z,29.58
2023-03-22T05:17:18.410Z,30.10
2023-03-22T05:19:47.780Z,29.50
2023-03-22T05:22:16.822Z,29.85
2023-03-22T05:24:49.614Z,30.42
2023-03-22T05:27:40.224Z,30.42
2023-03-22T05:30:31.403Z,27.85
2023-03-22T05:33:05.109Z,29.25
2023-03-22T05:35:39.647Z,29.48
2023-03-22T05:38:08.774Z,29.45
2023-03-22T05:40:41.891Z,29.00
2023-03-22T05:43:15.599Z,28.20
2023-03-22T05:45:48.081Z,27.23
2023-03-22T05:48:38.238Z,28.00
2023-03-22T05:51:10.498Z,26.17
2023-03-22T05:53:39.362Z,27.70
2023-03-22T05:56:13.750Z,26.25
2023-03-22T05:58:42.453Z,26.67
2023-03-22T06:01:13.203Z,25.35
2023-03-22T06:04:03.078Z,26.60
2023-03-22T06:06:39.365Z,27.55
2023-03-22T06:09:17.530Z,27.33
2023-03-22T06:11:49.365Z,27.15
2023-03-22T06:14:17.297Z,26.25
2023-03-22T06:17:07.380Z,26.27
2023-03-22T06:19:34.940Z,25.80
2023-03-22T06:22:04.761Z,26.42
2023-03-22T06:24:36.423Z,26.23
2023-03-22T06:27:06.419Z,25.88
2023-03-22T06:29:34.200Z,25.80
2023-03-22T06:32:04.358Z,24.95
2023-03-22T06:34:32.088Z,23.33
2023-03-22T06:36:59.635Z,24.80
2023-03-22T06:39:40.448Z,24.73
2023-03-22T06:42:09.131Z,24.77
2023-03-22T06:44:36.483Z,25.73
2023-03-22T06:47:42.183Z,25.55
2023-03-22T06:50:29.547Z,25.65
2023-03-22T06:53:08.064Z,25.15
2023-03-22T06:55:35.669Z,24.58
2023-03-22T06:58:12.454Z,24.13
2023-03-22T07:00:40.143Z,24.20
2023-03-22T07:03:11.148Z,25.25
2023-03-22T07:06:08.371Z,23.30
2023-03-22T07:11:08.317Z,23.80
2023-03-22T07:13:36.301Z,23.80
2023-03-22T07:16:09.998Z,25.30
2023-03-22T07:18:49.572Z,24.95
2023-03-22T07:21:17.971Z,23.52
2023-03-22T07:23:50.363Z,24.45
2023-03-22T07:26:19.916Z,24.83
2023-03-22T07:28:51.725Z,23.00
2023-03-22T07:31:31.180Z,24.50
2023-03-22T07:34:06.228Z,23.75
2023-03-22T07:36:46.479Z,23.80
2023-03-22T07:39:14.037Z,24.17
2023-03-22T07:41:45.367Z,23.98
2023-03-22T07:44:25.329Z,23.80
2023-03-22T07:47:11.215Z,23.38
2023-03-22T07:49:56.188Z,23.08
2023-03-22T07:52:30.483Z,21.52
2023-03-22T07:54:58.409Z,22.70
2023-03-22T07:57:26.856Z,22.88
2023-03-22T08:00:02.311Z,22.67
2023-03-22T08:02:51.120Z,21.90
2023-03-22T08:05:36.763Z,22.80
2023-03-22T08:08:06.727Z,22.15
2023-03-22T08:10:34.939Z,22.65
2023-03-22T08:13:02.356Z,24.05
2023-03-22T08:15:30.536Z,20.52
2023-03-22T08:18:01.572Z,21.98
2023-03-22T08:20:34.157Z,20.30
2023-03-22T08:23:08.053Z,22.73
2023-03-22T08:25:53.917Z,22.80
2023-03-22T08:28:22.117Z,23.63
2023-03-22T08:30:50.530Z,20.42
2023-03-22T08:33:17.944Z,22.58
2023-03-22T08:35:48.369Z,19.63
2023-03-22T08:38:15.919Z,19.35
2023-03-22T08:40:47.986Z,19.80
2023-03-22T08:43:19.232Z,21.95
2023-03-22T08:45:51.951Z,20.10
2023-03-22T08:48:21.095Z,18.77
2023-03-22T08:51:21.897Z,19.27
2023-03-22T08:54:00.364Z,18.38
2023-03-22T08:56:46.174Z,18.63
2023-03-22T08:59:51.302Z,18.65
2023-03-22T09:02:41.016Z,52.05
2023-03-22T09:05:08.690Z,28.85
2023-03-22T09:07:36.480Z,20.02
2023-03-22T09:10:12.517Z,20.90
2023-03-22T09:12:45.935Z,20.40
2023-03-22T09:15:14.748Z,18.90
2023-03-22T09:17:48.610Z,17.73
2023-03-22T09:20:16.526Z,19.27
2023-03-22T09:22:46.630Z,18.88
2023-03-22T09:25:16.867Z,18.48
2023-03-22T09:27:47.261Z,18.33
2023-03-22T09:30:14.860Z,19.65
2023-03-22T09:32:42.376Z,19.60
2023-03-22T09:35:13.525Z,18.65
2023-03-22T09:37:56.196Z,18.52
2023-03-22T09:40:28.771Z,17.73
2023-03-22T09:43:01.941Z,18.25
2023-03-22T09:46:15.873Z,18.27
2023-03-22T09:48:43.756Z,20.00
2023-03-22T09:51:50.580Z,18.42
2023-03-22T09:54:33.144Z,28.60
2023-03-22T09:57:05.759Z,19.17
2023-03-22T09:59:51.195Z,20.48
2023-03-22T10:02:32.747Z,19.05
2023-03-22T10:05:32.452Z,19.58
2023-03-22T10:08:24.140Z,19.33
2023-03-22T10:10:52.762Z,22.20
2023-03-22T10:13:40.391Z,20.10
2023-03-22T10:16:12.050Z,19.17
2023-03-22T10:18:47.117Z,23.17
2023-03-22T10:21:15.868Z,20.40
2023-03-22T10:24:14.965Z,19.60
2023-03-22T10:26:44.952Z,18.92
2023-03-22T10:29:32.377Z,20.08
2023-03-22T10:32:13.239Z,20.75
2023-03-22T10:34:40.518Z,21.95
2023-03-22T10:37:13.901Z,17.98
2023-03-22T10:39:53.796Z,18.83
2023-03-22T10:42:27.039Z,19.35
2023-03-22T10:45:02.426Z,19.83
2023-03-22T10:47:41.495Z,20.10
2023-03-22T10:50:28.531Z,18.63
2023-03-22T10:53:22.907Z,18.65
2023-03-22T10:55:50.563Z,19.45
2023-03-22T10:58:22.777Z,19.35
2023-03-22T11:00:53.905Z,17.02
2023-03-22T11:03:43.890Z,18.63
2023-03-22T11:06:21.009Z,18.58
2023-03-22T11:08:58.584Z,18.35
2023-03-22T11:11:40.914Z,16.83
2023-03-22T11:14:14.750Z,18.25
2023-03-22T11:17:06.951Z,19.08
2023-03-22T11:19:51.820Z,19.15
2023-03-22T11:22:47.262Z,19.00
2023-03-22T11:25:32.131Z,16.45
2023-03-22T11:28:33.105Z,18.20
2023-03-22T11:31:04.671Z,16.20
2023-03-22T11:33:32.852Z,16.35
2023-03-22T11:36:03.496Z,14.95
2023-03-22T11:38:39.130Z,15.75
2023-03-22T11:41:26.207Z,13.95
2023-03-22T11:43:56.297Z,13.77
2023-03-22T11:46:24.760Z,13.40
2023-03-22T11:48:53.410Z,13.68
2023-03-22T11:51:35.096Z,14.73
2023-03-22T11:54:45.839Z,14.38
2023-03-22T11:57:26.086Z,9.25
2023-03-22T12:00:12.184Z,10.05
2023-03-22T12:02:46.537Z,6.68
2023-03-22T12:05:23.216Z,4.68
2023-03-22T12:08:25.688Z,4.20
2023-03-22T12:11:06.469Z,4.30
2023-03-22T12:13:46.981Z,4.03
2023-03-22T12:16:20.798Z,4.15
2023-03-22T12:19:36.636Z,5.18
2023-03-22T12:22:16.155Z,4.57
2023-03-22T12:24:43.444Z,6.28
2023-03-22T12:27:55.059Z,4.78
2023-03-22T12:30:37.284Z,3.45
2023-03-22T12:33:16.607Z,3.60
2023-03-22T12:35:45.154Z,3.72
2023-03-22T12:38:24.688Z,3.63
2023-03-22T12:40:52.477Z,5.22
2023-03-22T12:43:26.705Z,4.30
2023-03-22T12:45:59.406Z,3.30
2023-03-22T12:48:41.376Z,3.42
2023-03-22T12:51:12.274Z,4.30
2023-03-22T12:53:48.494Z,3.90
2023-03-22T12:56:39.737Z,4.40
2023-03-22T12:59:29.540Z,4.25
2023-03-22T13:02:23.970Z,4.28
2023-03-22T13:04:56.780Z,3.90
2023-03-22T13:07:51.548Z,4.15
2023-03-22T13:10:36.058Z,4.68
2023-03-22T13:13:24.294Z,4.30
2023-03-22T13:16:12.710Z,4.72
2023-03-22T13:19:03.289Z,4.22
2023-03-22T13:21:31.654Z,4.15
2023-03-22T13:24:15.442Z,4.00
2023-03-22T13:26:51.430Z,4.07
2023-03-22T13:29:34.368Z,3.80
2023-03-22T13:32:03.666Z,3.50
2023-03-22T13:34:37.543Z,3.72
2023-03-22T13:37:10.990Z,2.90
2023-03-22T13:40:35.845Z,3.28
2023-03-22T13:43:47.710Z,3.47
2023-03-22T13:46:18.147Z,4.05
2023-03-22T13:48:49.013Z,3.83
2023-03-22T13:51:26.339Z,4.47
2023-03-22T13:54:08.532Z,4.22
2023-03-22T13:56:52.950Z,3.97
2023-03-22T13:59:27.976Z,4.32
2023-03-22T14:02:18.527Z,4.50
2023-03-22T14:05:13.554Z,4.00
2023-03-22T14:07:48.286Z,3.70
2023-03-22T14:10:41.665Z,3.63
2023-03-22T14:13:29.098Z,3.13
2023-03-22T14:16:08.899Z,3.35
2023-03-22T14:18:37.222Z,3.33
2023-03-22T14:21:07.595Z,3.20
